• Join FlightAware (Why Join?)
  • Login
  • US Flag 
03:55AM EDT


 

Airport Tracker/Info


-or-


 

Live Flight TrackerFlight Track Log ✈ CSJ405 ✈ 02-May-2013 ✈ KALB - KCDW

Flight Track Log - Related Links

Times and Time Zones

All times are in EDT time to prevent confusion due to time zone crossing. See the CSJ405 flight status page for this flight to view local times or setup timezone preferences in your user account.

Time Position Orientation Groundspeed Altitude Reporting Facility
EDT Latitude Longitude Course Direction KTS MPH feet Rate Location/Type
05:25PM 42.7589 -73.8058 290° West 82 94 1,000  Level Boston Center
05:26PM 42.7650 -73.8286 290° West 116 133 2,400 1,380 Climbing Boston Center
05:27PM 42.7356 -73.8422 199° South 123 142 3,800 1,320 Climbing Boston Center
05:28PM 42.7064 -73.8472 187° South 120 138 5,000 1,380 Climbing Boston Center
05:29PM 42.6831 -73.8692 215° Southwest 95 109 6,500 1,320 Climbing Boston Center
05:30PM 42.6536 -73.8911 209° Southwest 96 110 7,800 720 Climbing Boston Center
05:31PM 42.6264 -73.9158 214° Southwest 148 170 8,000  Climbing Boston Center
05:32PM 42.5822 -73.9458 207° Southwest 188 216 7,900 -60 Descending Boston Center
05:33PM 42.5381 -73.9731 204° Southwest 181 208 7,900  Level Boston Center
05:34PM 42.4917 -74.0028 205° Southwest 174 200 7,900  Level Boston Center
05:35PM 42.4456 -74.0383 210° Southwest 176 203 7,900  Level Boston Center
05:36PM 42.4014 -74.0653 204° Southwest 177 204 7,900  Level Boston Center
05:37PM 42.3611 -74.0950 209° Southwest 192 221 8,000  Climbing Boston Center
05:38PM 42.3233 -74.1278 213° Southwest 192 221 8,000  Level Boston Center
05:39PM 42.2747 -74.1572 204° Southwest 186 214 8,000  Level Boston Center
05:40PM 42.2347 -74.1842 207° Southwest 181 208 8,100  Climbing Boston Center
05:41PM 42.1883 -74.2194 209° Southwest 176 203 8,000 -60 Descending Boston Center
05:42PM 42.1506 -74.2464 208° Southwest 176 203 8,000  Level Boston Center
05:43PM 42.1106 -74.2758 209° Southwest 176 203 8,000  Level Boston Center
05:44PM 42.0619 -74.3081 206° Southwest 181 208 8,000  Level Boston Center
05:45PM 42.0094 -74.3344 200° South 181 208 8,000  Level Boston Center
05:46PM 41.9675 -74.3500 195° South 176 203 8,000  Level Boston Center
05:47PM 41.9128 -74.3733 198° South 181 208 8,000  Level Boston Center
05:48PM 41.8667 -74.3914 196° South 191 220 8,000  Level Boston Center
05:49PM 41.8122 -74.4150 198° South 191 220 8,100  Climbing Boston Center
05:50PM 41.7681 -74.4358 199° South 191 220 8,000 -60 Descending Boston Center
05:51PM 41.7133 -74.4592 198° South 191 220 8,000  Level Boston Center
05:52PM 41.6692 -74.4800 199° South 191 220 8,000  Level Boston Center
05:53PM 41.6125 -74.5031 197° South 191 220 8,000 -540 Level Boston Center
05:54PM 41.5683 -74.5267 202° Southwest 191 220 7,000 -900 Descending Boston Center
05:55PM 41.5114 -74.5553 201° Southwest 191 220 6,300 -480 Descending Boston Center
05:56PM 41.4675 -74.5733 197° South 191 220 6,100 -120 Descending Boston Center
05:58PM 41.3667 -74.6167 198° South 173 199 6,100 -120 Level New York TRACON
05:59PM 41.3167 -74.6333 194° South 171 197 5,800 -540 Descending New York TRACON
06:00PM 41.2667 -74.6333 180° South 169 194 5,100 -360 Descending New York TRACON
06:01PM 41.2333 -74.6000 143° Southeast 164 189 5,100 -480 Level New York TRACON
06:02PM 41.2000 -74.5500 132° Southeast 177 204 4,200 -720 Descending New York TRACON
06:03PM 41.1667 -74.5167 143° Southeast 170 196 3,700 -600 Descending New York TRACON
06:04PM 41.1167 -74.4833 153° Southeast 166 191 3,100 -300 Descending New York TRACON
06:05PM 41.0833 -74.4500 143° Southeast 164 189 3,100  Level New York TRACON
06:06PM 41.0500 -74.4333 159° South 160 184 3,100  Level New York TRACON
06:07PM 41.0000 -74.4000 153° Southeast 163 188 3,100 -240 Level New York TRACON
06:08PM 40.9667 -74.3667 143° Southeast 167 192 2,700 -600 Descending New York TRACON
06:09PM 40.9333 -74.3167 131° Southeast 165 190 2,000 -780 Descending New York TRACON
06:10PM 40.9000 -74.2833 143° Southeast 161 185 1,200 -840 Descending New York TRACON
06:12PM 40.8752 -74.2814 128° Southeast  Level Estimated
06:19PM 40.8752 -74.2814 128° Southeast  Level Estimated
06:20PM 40.8752 -74.2814 128° Southeast  Level Estimated
06:21PM 40.8752 -74.2814 128° Southeast  Level Estimated
06:22PM 40.8752 -74.2814 128° Southeast  Level Estimated